CST,Max TemperatureF,Mean TemperatureF,Min TemperatureF,Max Dew PointF,MeanDew PointF,Min DewpointF,Max Humidity, Mean Humidity, Min Humidity, Max Sea Level PressureIn, Mean Sea Level PressureIn, Min Sea Level PressureIn, Max VisibilityMiles, Mean VisibilityMiles, Min VisibilityMiles, Max Wind SpeedMPH, Mean Wind SpeedMPH, Max Gust SpeedMPH,PrecipitationIn, CloudCover, Events, WindDirDegrees
2012-11-1,77,70,64,68,66,62,93,86,74,30.08,30.03,29.99,,,,6,3,,0.00,,,253
2012-11-2,78,72,66,69,67,63,93,85,74,30.09,30.05,30.01,,,,7,2,,0.00,,,230
2012-11-3,81,74,68,68,66,64,90,77,58,30.14,30.09,30.05,,,,5,1,,0.00,,,165
2012-11-4,79,70,64,68,65,60,93,84,58,30.09,30.06,30.03,,,,6,1,,0.26,,,110
2012-11-5,72,67,62,67,63,61,96,86,75,30.08,30.01,29.94,,,,7,3,,0.70,,,212
2012-11-6,68,62,54,60,54,50,97,81,52,30.10,30.03,29.96,,,,8,2,,0.01,,,353
2012-11-7,71,62,53,51,47,42,89,62,39,30.15,30.09,30.03,,,,7,2,,0.01,,,319
2012-11-8,69,58,48,50,44,38,86,63,36,30.26,30.19,30.15,,,,7,2,,0.00,,,114
2012-11-9,73,62,51,58,53,46,90,74,57,30.23,30.18,30.15,,,,12,3,17,0.00,,,122
2012-11-10,78,68,57,62,59,55,90,74,52,30.19,30.14,30.10,,,,13,4,18,0.00,,,121
2012-11-11,79,74,69,69,65,62,91,77,60,30.11,30.07,30.03,,,,14,9,23,0.42,,,130
2012-11-12,73,62,50,69,52,40,90,69,53,30.36,30.24,30.09,,,,10,6,21,0.24,,,5
2012-11-13,60,52,43,40,34,27,74,55,33,30.42,30.34,30.28,,,,12,6,26,0.00,,,15
2012-11-14,64,54,44,40,35,30,76,53,28,30.35,30.29,30.24,,,,10,4,17,0.00,,,4
2012-11-15,64,54,43,48,41,37,83,65,38,30.30,30.25,30.19,,,,6,3,,0.00,,,350
2012-11-16,66,56,46,47,43,41,86,64,39,30.30,30.26,30.22,,,,6,2,,0.00,,,5
2012-11-17,69,58,46,46,42,37,83,61,31,30.34,30.30,30.25,,,,7,1,,0.00,,,35
2012-11-18,68,56,45,50,46,39,90,72,35,30.32,30.27,30.23,,,,6,1,,0.00,,,210
2012-11-19,69,58,48,57,51,45,90,77,53,30.29,30.22,30.17,,,,6,1,,0.01,,,175
2012-11-20,69,61,53,58,54,50,90,80,57,30.22,30.17,30.12,,,,5,0,,0.01,,,270
2012-11-21,72,64,55,61,54,49,90,76,57,30.24,30.18,30.14,,,,6,1,,0.00,,,269
2012-11-22,73,63,53,59,53,48,93,72,43,30.23,30.19,30.17,,,,6,0,,0.00,,,215
2012-11-23,73,67,61,63,58,56,90,77,57,30.26,30.21,30.18,,,,7,2,,0.00,,,43
2012-11-24,63,54,46,55,41,33,81,58,33,30.31,30.24,30.19,,,,7,4,,0.00,,,6
2012-11-25,66,54,43,56,47,38,89,74,53,30.19,30.13,30.07,,,,9,3,,0.01,,,124
2012-11-26,69,65,61,64,63,57,93,89,84,30.11,30.07,30.03,,,,14,6,21,0.38,,,128
2012-11-27,68,60,51,65,57,49,93,89,83,30.29,30.18,30.05,,,,10,5,17,0.80,,,3
2012-11-28,64,56,48,48,46,40,97,80,43,30.42,30.34,30.28,,,,8,4,,0.00,,,17
2012-11-29,68,56,44,56,49,41,90,78,56,30.34,30.27,30.21,,,,5,1,,0.01,,,133
2012-11-30,72,62,51,59,55,49,93,81,57,30.26,30.21,30.16,,,,8,1,,0.00,,,113